createdAt,value
2022-08-24T00:00:19.179Z,5.60
2022-08-24T00:02:46.982Z,6.15
2022-08-24T00:05:16.377Z,5.95
2022-08-24T00:07:44.303Z,5.65
2022-08-24T00:10:13.610Z,6.13
2022-08-24T00:12:41.941Z,5.97
2022-08-24T00:15:13.432Z,6.40
2022-08-24T00:17:41.570Z,5.43
2022-08-24T00:20:12.336Z,5.60
2022-08-24T00:22:42.144Z,6.15
2022-08-24T00:25:11.922Z,5.65
2022-08-24T00:27:41.066Z,5.85
2022-08-24T00:30:12.184Z,5.38
2022-08-24T00:32:39.986Z,5.13
2022-08-24T00:35:09.170Z,5.32
2022-08-24T00:37:37.492Z,4.78
2022-08-24T00:40:12.471Z,5.55
2022-08-24T00:42:41.237Z,5.63
2022-08-24T00:45:13.772Z,5.80
2022-08-24T00:47:57.622Z,5.90
2022-08-24T00:50:30.730Z,5.65
2022-08-24T00:53:02.480Z,6.00
2022-08-24T00:55:35.969Z,5.63
2022-08-24T00:58:08.743Z,5.60
2022-08-24T01:00:48.433Z,5.55
2022-08-24T01:03:17.480Z,5.72
2022-08-24T01:05:46.093Z,5.90
2022-08-24T01:08:15.047Z,5.55
2022-08-24T01:10:47.164Z,5.93
2022-08-24T01:13:15.827Z,6.22
2022-08-24T01:15:46.495Z,5.03
2022-08-24T01:18:36.774Z,6.03
2022-08-24T01:21:11.362Z,5.88
2022-08-24T01:23:42.551Z,5.93
2022-08-24T01:26:15.564Z,6.15
2022-08-24T01:28:46.864Z,6.40
2022-08-24T01:31:16.342Z,5.97
2022-08-24T01:33:44.142Z,6.00
2022-08-24T01:36:28.486Z,5.68
2022-08-24T01:39:01.385Z,5.53
2022-08-24T01:41:29.453Z,5.68
2022-08-24T01:43:58.132Z,6.03
2022-08-24T01:46:26.056Z,6.05
2022-08-24T01:48:54.134Z,6.40
2022-08-24T01:51:22.021Z,5.20
2022-08-24T01:53:49.873Z,5.95
2022-08-24T01:56:18.928Z,6.30
2022-08-24T01:58:47.814Z,4.80
2022-08-24T02:01:17.551Z,5.20
2022-08-24T02:03:46.270Z,4.82
2022-08-24T02:06:19.721Z,5.85
2022-08-24T02:08:47.630Z,5.68
2022-08-24T02:11:15.544Z,5.68
2022-08-24T02:13:44.656Z,6.53
2022-08-24T02:16:14.279Z,8.32
2022-08-24T02:18:42.206Z,8.43
2022-08-24T02:21:11.354Z,7.38
2022-08-24T02:23:41.236Z,7.40
2022-08-24T02:26:11.293Z,5.70
2022-08-24T02:28:40.360Z,6.70
2022-08-24T02:31:11.287Z,7.72
2022-08-24T02:33:40.151Z,7.40
2022-08-24T02:36:26.046Z,7.03
2022-08-24T02:38:54.331Z,7.07
2022-08-24T02:41:22.388Z,6.78
2022-08-24T02:43:50.172Z,6.40
2022-08-24T02:46:20.775Z,6.45
2022-08-24T02:48:52.236Z,6.43
2022-08-24T02:51:32.139Z,6.07
2022-08-24T02:54:12.336Z,6.50
2022-08-24T02:56:40.468Z,6.38
2022-08-24T02:59:08.306Z,5.97
2022-08-24T03:01:37.475Z,6.47
2022-08-24T03:04:05.843Z,6.05
2022-08-24T03:06:33.666Z,6.32
2022-08-24T03:09:01.478Z,5.82
2022-08-24T03:11:29.210Z,5.47
2022-08-24T03:13:58.903Z,5.93
2022-08-24T03:16:27.309Z,6.53
2022-08-24T03:18:56.512Z,5.97
2022-08-24T03:21:24.688Z,5.93
2022-08-24T03:23:52.462Z,6.43
2022-08-24T03:26:20.610Z,5.80
2022-08-24T03:28:49.511Z,7.47
2022-08-24T03:31:17.627Z,7.15
2022-08-24T03:33:45.382Z,7.68
2022-08-24T03:36:14.739Z,8.48
2022-08-24T03:38:42.760Z,11.38
2022-08-24T03:41:10.801Z,12.02
2022-08-24T03:43:49.514Z,13.80
2022-08-24T03:46:20.446Z,12.63
2022-08-24T03:48:49.406Z,13.63
2022-08-24T03:51:21.842Z,14.57
2022-08-24T03:53:49.925Z,14.88
2022-08-24T03:56:18.459Z,15.55
2022-08-24T03:58:46.739Z,13.25
2022-08-24T04:01:15.457Z,15.93
2022-08-24T04:03:45.326Z,14.15
2022-08-24T04:06:14.473Z,14.80
2022-08-24T04:08:43.874Z,14.45
2022-08-24T04:11:13.016Z,14.88
2022-08-24T04:13:40.897Z,15.38
2022-08-24T04:16:10.623Z,16.27
2022-08-24T04:18:38.460Z,16.38
2022-08-24T04:21:06.960Z,15.05
2022-08-24T04:23:47.031Z,17.58
2022-08-24T04:26:45.232Z,17.33
2022-08-24T04:29:09.453Z,15.07
2022-08-24T04:31:37.722Z,14.50
2022-08-24T04:34:06.852Z,14.70
2022-08-24T04:36:35.128Z,17.58
2022-08-24T04:39:03.361Z,15.10
2022-08-24T04:41:32.435Z,15.57
2022-08-24T04:44:02.921Z,16.98
2022-08-24T04:46:31.001Z,15.45
2022-08-24T04:48:59.002Z,16.30
2022-08-24T04:51:26.993Z,17.75
2022-08-24T04:53:58.398Z,16.15
2022-08-24T04:56:27.329Z,16.75
2022-08-24T04:58:56.981Z,16.40
2022-08-24T05:01:27.450Z,16.30
2022-08-24T05:03:56.368Z,16.25
2022-08-24T05:06:26.399Z,16.75
2022-08-24T05:08:54.878Z,17.00
2022-08-24T05:11:24.010Z,17.08
2022-08-24T05:13:53.367Z,17.13
2022-08-24T05:16:23.239Z,17.83
2022-08-24T05:18:51.376Z,17.40
2022-08-24T05:21:21.715Z,19.52
2022-08-24T05:23:49.963Z,17.65
2022-08-24T05:26:21.271Z,18.60
2022-08-24T05:28:49.208Z,19.42
2022-08-24T05:31:20.590Z,19.40
2022-08-24T05:33:50.288Z,20.33
2022-08-24T05:36:22.213Z,20.33
2022-08-24T05:38:51.607Z,21.30
2022-08-24T05:41:19.592Z,20.17
2022-08-24T05:43:47.748Z,19.80
2022-08-24T05:46:16.004Z,18.88
2022-08-24T05:48:53.058Z,19.58
2022-08-24T05:51:22.678Z,21.25
2022-08-24T05:53:51.364Z,21.30
2022-08-24T05:56:20.669Z,20.80
2022-08-24T05:58:49.517Z,20.23
2022-08-24T06:01:20.936Z,20.65
2022-08-24T06:03:50.136Z,25.88
2022-08-24T06:06:19.565Z,19.90
2022-08-24T06:08:51.253Z,21.02
2022-08-24T06:11:24.774Z,18.98
2022-08-24T06:14:00.568Z,19.45
2022-08-24T06:16:29.294Z,19.02
2022-08-24T06:18:57.879Z,17.95
2022-08-24T06:21:28.605Z,17.83
2022-08-24T06:23:58.113Z,18.25
2022-08-24T06:26:42.661Z,17.30
2022-08-24T06:29:10.839Z,17.52
2022-08-24T06:31:40.088Z,15.07
2022-08-24T06:34:10.681Z,14.57
2022-08-24T06:36:40.025Z,15.45
2022-08-24T06:39:10.402Z,15.55
2022-08-24T06:41:39.326Z,14.80
2022-08-24T06:44:08.619Z,14.43
2022-08-24T06:46:36.530Z,13.77
2022-08-24T06:49:05.618Z,13.70
2022-08-24T06:51:33.451Z,13.20
2022-08-24T06:54:01.648Z,12.70
2022-08-24T06:56:30.811Z,12.73
2022-08-24T06:58:58.625Z,11.88
2022-08-24T07:01:28.431Z,11.85
2022-08-24T07:03:56.760Z,11.93
2022-08-24T07:06:25.796Z,10.80
2022-08-24T07:08:54.185Z,11.73
2022-08-24T07:11:22.037Z,10.57
2022-08-24T07:13:51.281Z,9.68
2022-08-24T07:16:20.982Z,9.90
2022-08-24T07:18:50.299Z,9.15
2022-08-24T07:21:19.683Z,8.15
2022-08-24T07:23:48.138Z,7.53
2022-08-24T07:26:21.540Z,8.18
2022-08-24T07:28:53.839Z,7.47
2022-08-24T07:31:21.939Z,7.88
2022-08-24T07:33:49.882Z,9.00
2022-08-24T07:36:22.650Z,7.13
2022-08-24T07:38:52.710Z,7.80
2022-08-24T07:41:43.093Z,8.63
2022-08-24T07:44:10.764Z,8.48
2022-08-24T07:46:39.934Z,15.07
2022-08-24T07:49:31.582Z,8.52
2022-08-24T07:51:57.175Z,9.25
2022-08-24T07:54:25.754Z,8.65
2022-08-24T07:56:53.544Z,8.23
2022-08-24T07:59:22.778Z,8.63
2022-08-24T08:01:51.220Z,8.32
2022-08-24T08:04:22.072Z,7.88
2022-08-24T08:06:49.902Z,8.05
2022-08-24T08:09:18.077Z,7.00
2022-08-24T08:11:45.856Z,6.38
2022-08-24T08:14:14.786Z,6.53
2022-08-24T08:16:43.946Z,6.38
2022-08-24T08:19:12.219Z,6.45
2022-08-24T08:22:00.782Z,6.22
2022-08-24T08:24:28.774Z,6.60
2022-08-24T08:26:57.674Z,7.10
2022-08-24T08:29:26.125Z,6.78
2022-08-24T08:31:55.936Z,6.40
2022-08-24T08:34:23.756Z,7.05
2022-08-24T08:36:51.868Z,6.60
2022-08-24T08:39:22.144Z,6.28
2022-08-24T08:42:24.991Z,5.40
2022-08-24T08:45:20.110Z,5.85
2022-08-24T08:48:16.112Z,5.53
2022-08-24T08:51:09.926Z,5.47
2022-08-24T08:54:11.856Z,6.03
2022-08-24T08:56:46.355Z,6.30
2022-08-24T08:59:24.542Z,7.40
2022-08-24T09:02:07.571Z,7.53
2022-08-24T09:05:10.358Z,7.68
2022-08-24T09:07:46.362Z,8.10
2022-08-24T09:10:25.826Z,8.20
2022-08-24T09:13:12.867Z,9.48
2022-08-24T09:16:00.341Z,8.10
2022-08-24T09:18:41.421Z,8.98
2022-08-24T09:21:32.790Z,8.00
2022-08-24T09:24:22.680Z,7.38
2022-08-24T09:27:00.639Z,7.22
2022-08-24T09:29:44.920Z,7.22
2022-08-24T09:32:34.267Z,7.80
2022-08-24T09:35:06.090Z,8.65
2022-08-24T09:37:50.811Z,9.60
2022-08-24T09:40:39.396Z,10.45
2022-08-24T09:43:37.471Z,10.05
2022-08-24T09:46:28.366Z,11.57
2022-08-24T09:49:17.013Z,10.73
2022-08-24T09:52:18.758Z,11.07
2022-08-24T09:55:09.036Z,9.63
2022-08-24T09:58:04.240Z,9.23
2022-08-24T10:00:35.614Z,10.52
2022-08-24T10:03:16.825Z,11.40
2022-08-24T10:06:03.554Z,10.73
2022-08-24T10:08:45.226Z,11.48
2022-08-24T10:11:23.124Z,10.38
2022-08-24T10:14:00.145Z,10.55
2022-08-24T10:16:38.794Z,10.38
2022-08-24T10:19:24.923Z,11.02
2022-08-24T10:21:59.667Z,9.93
2022-08-24T10:24:53.705Z,9.73
2022-08-24T10:27:46.109Z,9.43
2022-08-24T10:30:53.405Z,8.63
2022-08-24T10:33:24.106Z,9.10
2022-08-24T10:36:17.045Z,9.85
2022-08-24T10:39:08.834Z,9.25
2022-08-24T10:42:11.523Z,8.60
2022-08-24T10:44:48.737Z,9.18
2022-08-24T10:47:23.308Z,8.48
2022-08-24T10:50:24.681Z,7.68
2022-08-24T10:53:23.890Z,8.82
2022-08-24T10:56:04.515Z,8.88
2022-08-24T10:58:45.091Z,9.27
2022-08-24T11:01:26.698Z,8.85
2022-08-24T11:03:59.697Z,7.90
2022-08-24T11:06:30.856Z,8.40
2022-08-24T11:09:02.542Z,7.38
2022-08-24T11:11:34.442Z,7.78
2022-08-24T11:14:04.950Z,7.55
2022-08-24T11:16:41.113Z,7.70
2022-08-24T11:19:13.228Z,7.75
2022-08-24T11:21:51.160Z,10.32
2022-08-24T11:24:42.522Z,7.63
2022-08-24T11:27:23.326Z,7.15
2022-08-24T11:30:03.721Z,7.60
2022-08-24T11:32:39.661Z,7.65
2022-08-24T11:35:16.108Z,7.40
2022-08-24T11:37:44.958Z,7.32
2022-08-24T11:40:13.708Z,7.63
2022-08-24T11:43:06.058Z,7.50
2022-08-24T11:45:40.216Z,7.55
2022-08-24T11:48:19.426Z,7.20
2022-08-24T11:50:52.777Z,6.55
2022-08-24T11:53:32.005Z,7.20
2022-08-24T11:56:05.967Z,6.97
2022-08-24T11:58:46.139Z,8.00
2022-08-24T12:01:21.424Z,7.20
2022-08-24T12:04:07.726Z,7.32
2022-08-24T12:06:45.925Z,7.15
2022-08-24T12:09:31.208Z,6.15
2022-08-24T12:12:09.680Z,6.72
2022-08-24T12:14:43.543Z,6.97
2022-08-24T12:17:18.075Z,7.30
2022-08-24T12:19:50.821Z,6.63
2022-08-24T12:22:20.944Z,7.35
2022-08-24T12:24:51.641Z,6.88
2022-08-24T12:27:23.210Z,7.32
2022-08-24T12:29:57.218Z,7.15
2022-08-24T12:32:29.070Z,7.10
2022-08-24T12:35:01.814Z,7.57
2022-08-24T12:37:34.902Z,7.38
2022-08-24T12:40:11.208Z,7.55
2022-08-24T12:42:51.791Z,8.15
2022-08-24T12:45:22.488Z,7.88
2022-08-24T12:47:58.123Z,7.53
2022-08-24T12:50:32.230Z,8.00
2022-08-24T12:53:30.306Z,7.78
2022-08-24T12:56:14.693Z,8.05
2022-08-24T12:59:00.362Z,8.10
2022-08-24T13:01:33.664Z,7.53
2022-08-24T13:04:10.159Z,8.27
2022-08-24T13:06:43.536Z,8.50
2022-08-24T13:09:18.100Z,7.97
2022-08-24T13:11:45.946Z,7.57
2022-08-24T13:14:20.526Z,7.47
2022-08-24T13:17:08.439Z,7.30
2022-08-24T13:19:39.671Z,7.63
2022-08-24T13:22:39.166Z,7.03
2022-08-24T13:25:50.624Z,6.75
2022-08-24T13:28:39.255Z,6.97
2022-08-24T13:31:26.169Z,6.25
2022-08-24T13:33:57.414Z,6.60
2022-08-24T13:36:45.007Z,6.65
2022-08-24T13:39:34.712Z,6.57
2022-08-24T13:42:21.643Z,7.22
2022-08-24T13:45:07.915Z,6.32
2022-08-24T13:47:50.686Z,5.85
2022-08-24T13:50:35.679Z,6.57
2022-08-24T13:53:36.472Z,6.45
2022-08-24T13:56:32.035Z,6.53
2022-08-24T13:59:09.656Z,6.50
2022-08-24T14:01:49.818Z,5.80
2022-08-24T14:04:48.157Z,5.43
2022-08-24T14:07:21.232Z,5.93
2022-08-24T14:10:02.682Z,5.88
2022-08-24T14:12:50.618Z,5.45
2022-08-24T14:15:27.031Z,5.35
2022-08-24T14:18:10.138Z,5.20
2022-08-24T14:20:59.117Z,5.22
2022-08-24T14:23:47.997Z,4.88
2022-08-24T14:26:53.251Z,4.63
2022-08-24T14:29:45.360Z,4.57
2022-08-24T14:32:47.728Z,4.68
2022-08-24T14:35:22.843Z,5.13
2022-08-24T14:38:01.311Z,5.10
2022-08-24T14:40:37.319Z,4.38
2022-08-24T14:43:25.061Z,4.80
2022-08-24T14:46:09.601Z,4.68
2022-08-24T14:48:47.228Z,4.50
2022-08-24T14:51:31.804Z,4.75
2022-08-24T14:54:09.979Z,4.53
2022-08-24T14:56:53.757Z,4.90
2022-08-24T14:59:33.767Z,4.35
2022-08-24T15:02:44.104Z,4.43
2022-08-24T15:05:23.692Z,4.40
2022-08-24T15:07:57.862Z,4.28
2022-08-24T15:10:29.937Z,4.35
2022-08-24T15:13:03.835Z,4.40
2022-08-24T15:15:39.685Z,4.93
2022-08-24T15:18:24.582Z,5.32
2022-08-24T15:21:06.307Z,4.70
2022-08-24T15:23:49.407Z,4.35
2022-08-24T15:26:24.511Z,5.13
2022-08-24T15:28:56.593Z,4.90
2022-08-24T15:31:27.511Z,4.60
2022-08-24T15:34:00.422Z,4.18
2022-08-24T15:36:30.118Z,4.22
2022-08-24T15:38:57.932Z,4.40
2022-08-24T15:41:30.455Z,4.53
2022-08-24T15:44:00.699Z,4.40
2022-08-24T15:46:33.411Z,4.28
2022-08-24T15:49:05.367Z,4.82
2022-08-24T15:51:44.666Z,4.60
2022-08-24T15:54:28.402Z,4.60
2022-08-24T15:56:59.306Z,4.47
2022-08-24T15:59:29.091Z,4.60
2022-08-24T16:02:16.617Z,4.85
2022-08-24T16:04:49.269Z,4.55
2022-08-24T16:07:24.205Z,4.57
2022-08-24T16:10:06.155Z,5.18
2022-08-24T16:12:33.967Z,5.32
2022-08-24T16:15:14.556Z,4.63
2022-08-24T16:17:49.297Z,4.57
2022-08-24T16:20:32.963Z,5.05
2022-08-24T16:23:03.626Z,5.00
2022-08-24T16:25:34.536Z,5.15
2022-08-24T16:28:09.816Z,6.00
2022-08-24T16:30:46.673Z,5.00
2022-08-24T16:33:43.647Z,4.88
2022-08-24T16:36:15.747Z,4.78
2022-08-24T16:38:47.716Z,5.03
2022-08-24T16:41:18.364Z,5.25
2022-08-24T16:43:46.820Z,5.00
2022-08-24T16:46:19.314Z,5.10
2022-08-24T16:48:47.068Z,4.95
2022-08-24T16:51:16.173Z,4.90
2022-08-24T16:53:43.909Z,4.78
2022-08-24T16:56:14.844Z,5.32
2022-08-24T16:58:44.661Z,5.20
2022-08-24T17:01:13.769Z,5.80
2022-08-24T17:03:42.320Z,5.13
2022-08-24T17:06:12.261Z,4.68
2022-08-24T17:08:41.964Z,5.30
2022-08-24T17:11:10.669Z,4.93
2022-08-24T17:13:49.358Z,4.90
2022-08-24T17:16:18.581Z,4.95
2022-08-24T17:18:46.567Z,4.93
2022-08-24T17:21:14.319Z,5.45
2022-08-24T17:23:44.151Z,5.10
2022-08-24T17:26:20.925Z,5.13
2022-08-24T17:28:51.671Z,5.18
2022-08-24T17:31:19.716Z,5.18
2022-08-24T17:33:47.531Z,4.68
2022-08-24T17:36:16.642Z,5.50
2022-08-24T17:38:54.481Z,5.45
2022-08-24T17:41:24.009Z,5.07
2022-08-24T17:43:52.332Z,5.05
2022-08-24T17:46:20.942Z,5.15
2022-08-24T17:48:49.113Z,5.18
2022-08-24T17:51:17.034Z,5.30
2022-08-24T17:53:46.205Z,4.97
2022-08-24T17:56:15.385Z,4.82
2022-08-24T17:59:01.308Z,5.25
2022-08-24T18:01:30.238Z,5.07
2022-08-24T18:03:58.291Z,5.68
2022-08-24T18:06:28.646Z,4.90
2022-08-24T18:09:00.539Z,5.00
2022-08-24T18:11:28.283Z,4.80
2022-08-24T18:13:56.089Z,5.82
2022-08-24T18:16:27.551Z,5.85
2022-08-24T18:18:56.187Z,5.40
2022-08-24T18:21:24.474Z,5.38
2022-08-24T18:23:52.990Z,6.07
2022-08-24T18:26:27.634Z,6.18
2022-08-24T18:28:58.184Z,5.82
2022-08-24T18:31:28.690Z,6.05
2022-08-24T18:33:56.518Z,6.15
2022-08-24T18:36:24.289Z,6.20
2022-08-24T18:38:53.205Z,6.28
2022-08-24T18:41:22.448Z,5.88
2022-08-24T18:43:50.288Z,5.90
2022-08-24T18:46:18.082Z,5.90
2022-08-24T18:48:46.016Z,6.35
2022-08-24T18:51:16.518Z,6.80
2022-08-24T18:53:44.292Z,6.60
2022-08-24T18:56:12.809Z,5.85
2022-08-24T18:58:42.024Z,6.45
2022-08-24T19:01:11.071Z,6.18
2022-08-24T19:03:39.108Z,6.15
2022-08-24T19:06:07.318Z,6.22
2022-08-24T19:08:35.177Z,6.40
2022-08-24T19:11:02.997Z,6.25
2022-08-24T19:13:31.029Z,6.38
2022-08-24T19:16:00.724Z,5.93
2022-08-24T19:18:28.582Z,6.18
2022-08-24T19:20:58.613Z,6.32
2022-08-24T19:23:29.334Z,6.22
2022-08-24T19:26:01.042Z,6.18
2022-08-24T19:28:29.631Z,6.72
2022-08-24T19:30:58.971Z,6.78
2022-08-24T19:33:31.969Z,6.50
2022-08-24T19:36:00.673Z,6.57
2022-08-24T19:38:29.369Z,6.30
2022-08-24T19:40:58.742Z,6.45
2022-08-24T19:43:27.926Z,6.85
2022-08-24T19:46:06.351Z,6.13
2022-08-24T19:48:38.069Z,6.10
2022-08-24T19:51:09.260Z,6.55
2022-08-24T19:53:38.988Z,6.88
2022-08-24T19:56:07.671Z,6.68
2022-08-24T19:58:40.904Z,6.68
2022-08-24T20:01:13.585Z,6.47
2022-08-24T20:03:42.752Z,6.10
2022-08-24T20:06:10.833Z,6.60
2022-08-24T20:08:39.335Z,7.03
2022-08-24T20:11:08.250Z,6.32
2022-08-24T20:13:36.293Z,6.65
2022-08-24T20:16:06.029Z,6.82
2022-08-24T20:18:39.609Z,6.75
2022-08-24T20:21:09.021Z,6.75
2022-08-24T20:23:37.249Z,6.50
2022-08-24T20:26:07.946Z,6.57
2022-08-24T20:28:40.661Z,6.53
2022-08-24T20:31:09.418Z,6.28
2022-08-24T20:33:37.207Z,6.72
2022-08-24T20:36:05.887Z,6.50
2022-08-24T20:38:35.652Z,6.20
2022-08-24T20:41:03.515Z,6.15
2022-08-24T20:43:31.361Z,6.65
2022-08-24T20:45:59.138Z,6.53
2022-08-24T20:48:30.414Z,5.85
2022-08-24T20:50:58.754Z,6.47
2022-08-24T20:53:27.313Z,6.03
2022-08-24T20:55:57.277Z,6.60
2022-08-24T20:58:25.206Z,6.25
2022-08-24T21:00:53.050Z,6.68
2022-08-24T21:03:21.435Z,6.70
2022-08-24T21:05:52.242Z,6.53
2022-08-24T21:08:20.614Z,6.63
2022-08-24T21:10:48.422Z,6.75
2022-08-24T21:13:17.542Z,6.68
2022-08-24T21:15:46.331Z,6.70
2022-08-24T21:18:14.206Z,6.75
2022-08-24T21:20:44.752Z,6.38
2022-08-24T21:23:30.295Z,6.43
2022-08-24T21:25:58.502Z,6.88
2022-08-24T21:28:27.748Z,7.28
2022-08-24T21:30:55.520Z,6.90
2022-08-24T21:33:49.471Z,5.93
2022-08-24T21:36:17.271Z,6.82
2022-08-24T21:38:45.430Z,6.28
2022-08-24T21:41:13.409Z,6.88
2022-08-24T21:43:42.477Z,6.88
2022-08-24T21:46:11.017Z,7.10
2022-08-24T21:48:39.950Z,6.25
2022-08-24T21:51:08.146Z,5.72
2022-08-24T21:53:35.999Z,6.63
2022-08-24T21:56:04.533Z,6.22
2022-08-24T21:58:32.535Z,6.03
2022-08-24T22:01:02.138Z,5.38
2022-08-24T22:03:31.665Z,6.38
2022-08-24T22:06:08.522Z,6.35
2022-08-24T22:08:36.700Z,6.10
2022-08-24T22:11:05.208Z,6.25
2022-08-24T22:13:34.096Z,7.28
2022-08-24T22:16:03.678Z,6.65
2022-08-24T22:18:32.209Z,6.20
2022-08-24T22:21:00.426Z,6.32
2022-08-24T22:23:28.206Z,6.85
2022-08-24T22:25:56.079Z,6.30
2022-08-24T22:28:24.351Z,6.30
2022-08-24T22:30:52.203Z,6.60
2022-08-24T22:33:21.951Z,6.35
2022-08-24T22:35:50.417Z,6.40
2022-08-24T22:38:18.416Z,6.75
2022-08-24T22:40:46.188Z,6.47
2022-08-24T22:43:14.341Z,6.35
2022-08-24T22:45:42.100Z,6.60
2022-08-24T22:48:09.868Z,6.47
2022-08-24T22:50:40.683Z,7.22
2022-08-24T22:53:09.620Z,6.63
2022-08-24T22:55:37.355Z,6.85
2022-08-24T22:58:05.504Z,7.00
2022-08-24T23:00:33.348Z,7.50
2022-08-24T23:03:01.173Z,6.38
2022-08-24T23:05:28.959Z,7.30
2022-08-24T23:07:58.073Z,6.50
2022-08-24T23:10:26.128Z,6.60
2022-08-24T23:12:54.166Z,7.47
2022-08-24T23:15:22.238Z,6.78
2022-08-24T23:17:50.009Z,6.78
2022-08-24T23:20:16.815Z,7.40
2022-08-24T23:22:48.231Z,6.90
2022-08-24T23:25:17.340Z,6.68
2022-08-24T23:27:49.369Z,7.00
2022-08-24T23:30:17.967Z,7.00
2022-08-24T23:32:46.272Z,7.00
2022-08-24T23:35:14.076Z,7.00
2022-08-24T23:37:42.201Z,7.18
2022-08-24T23:40:11.231Z,7.05
2022-08-24T23:42:40.345Z,7.18
2022-08-24T23:45:11.180Z,7.50
2022-08-24T23:47:40.352Z,7.22
2022-08-24T23:50:11.338Z,7.05
2022-08-24T23:52:39.962Z,7.80
2022-08-24T23:55:20.287Z,7.35
2022-08-24T23:57:50.631Z,7.30
